createdAt,value
2022-08-23T00:01:31.559Z,3.53
2022-08-23T00:04:03.673Z,2.85
2022-08-23T00:06:32.560Z,3.70
2022-08-23T00:09:00.730Z,3.20
2022-08-23T00:11:32.849Z,3.13
2022-08-23T00:14:06.441Z,3.25
2022-08-23T00:16:35.392Z,3.33
2022-08-23T00:19:03.753Z,3.20
2022-08-23T00:21:31.644Z,3.63
2022-08-23T00:23:59.932Z,3.45
2022-08-23T00:26:27.959Z,3.60
2022-08-23T00:28:55.819Z,4.00
2022-08-23T00:31:25.100Z,3.55
2022-08-23T00:33:52.959Z,3.50
2022-08-23T00:36:21.090Z,3.50
2022-08-23T00:38:49.456Z,3.28
2022-08-23T00:41:17.394Z,3.65
2022-08-23T00:44:14.503Z,3.70
2022-08-23T00:47:20.008Z,3.67
2022-08-23T00:49:54.629Z,3.80
2022-08-23T00:52:29.406Z,3.83
2022-08-23T00:54:58.021Z,3.90
2022-08-23T00:57:28.465Z,3.22
2022-08-23T00:59:56.357Z,3.60
2022-08-23T01:02:27.714Z,3.60
2022-08-23T01:05:05.013Z,3.42
2022-08-23T01:07:42.747Z,3.67
2022-08-23T01:10:20.104Z,3.78
2022-08-23T01:12:55.135Z,3.80
2022-08-23T01:15:27.620Z,3.97
2022-08-23T01:18:03.279Z,3.85
2022-08-23T01:20:36.227Z,4.20
2022-08-23T01:23:11.262Z,4.28
2022-08-23T01:25:41.144Z,4.18
2022-08-23T01:28:09.235Z,3.38
2022-08-23T01:30:38.948Z,4.10
2022-08-23T01:33:08.267Z,4.20
2022-08-23T01:35:42.261Z,4.35
2022-08-23T01:38:11.488Z,4.32
2022-08-23T01:40:42.315Z,3.75
2022-08-23T01:43:11.501Z,4.10
2022-08-23T01:45:39.827Z,4.40
2022-08-23T01:48:08.332Z,4.13
2022-08-23T01:53:05.880Z,4.20
2022-08-23T01:55:34.288Z,4.35
2022-08-23T01:58:06.252Z,3.90
2022-08-23T02:00:37.043Z,4.00
2022-08-23T02:03:06.444Z,4.07
2022-08-23T02:05:34.892Z,4.15
2022-08-23T02:08:23.017Z,4.03
2022-08-23T02:10:51.211Z,4.10
2022-08-23T02:13:20.471Z,4.20
2022-08-23T02:15:51.291Z,3.80
2022-08-23T02:18:20.799Z,3.90
2022-08-23T02:20:50.688Z,4.72
2022-08-23T02:23:20.182Z,4.20
2022-08-23T02:25:48.086Z,4.25
2022-08-23T02:28:15.985Z,4.38
2022-08-23T02:30:46.641Z,4.47
2022-08-23T02:33:15.389Z,4.35
2022-08-23T02:35:45.167Z,4.05
2022-08-23T02:38:14.129Z,3.90
2022-08-23T02:40:43.089Z,4.30
2022-08-23T02:43:11.004Z,4.18
2022-08-23T02:45:39.258Z,3.83
2022-08-23T02:48:09.803Z,4.13
2022-08-23T02:50:38.124Z,3.40
2022-08-23T02:53:06.186Z,3.80
2022-08-23T02:55:34.237Z,3.80
2022-08-23T02:58:02.245Z,3.50
2022-08-23T03:00:30.307Z,3.40
2022-08-23T03:02:58.214Z,3.92
2022-08-23T03:05:27.659Z,3.67
2022-08-23T03:07:55.725Z,3.78
2022-08-23T03:10:23.648Z,3.80
2022-08-23T03:12:52.832Z,3.70
2022-08-23T03:15:20.816Z,3.83
2022-08-23T03:17:48.916Z,3.60
2022-08-23T03:20:17.263Z,4.10
2022-08-23T03:22:54.292Z,3.67
2022-08-23T03:25:23.148Z,3.80
2022-08-23T03:27:51.045Z,4.47
2022-08-23T03:30:20.024Z,3.80
2022-08-23T03:32:49.250Z,3.38
2022-08-23T03:35:17.625Z,3.85
2022-08-23T03:37:46.863Z,4.10
2022-08-23T03:40:14.872Z,3.63
2022-08-23T03:42:42.823Z,4.15
2022-08-23T03:45:11.501Z,3.92
2022-08-23T03:47:39.449Z,4.00
2022-08-23T03:50:08.196Z,4.22
2022-08-23T03:52:36.240Z,4.30
2022-08-23T03:55:06.203Z,4.15
2022-08-23T03:57:34.513Z,3.67
2022-08-23T04:00:02.629Z,4.35
2022-08-23T04:02:30.587Z,3.92
2022-08-23T04:04:58.557Z,4.20
2022-08-23T04:07:26.983Z,4.18
2022-08-23T04:09:55.564Z,4.55
2022-08-23T04:12:24.940Z,4.63
2022-08-23T04:14:53.435Z,4.80
2022-08-23T04:17:21.606Z,4.75
2022-08-23T04:19:49.716Z,4.40
2022-08-23T04:22:19.379Z,4.13
2022-08-23T04:24:48.047Z,4.47
2022-08-23T04:27:15.982Z,4.75
2022-08-23T04:29:45.184Z,4.15
2022-08-23T04:32:14.570Z,4.90
2022-08-23T04:34:54.712Z,4.80
2022-08-23T04:37:23.275Z,4.35
2022-08-23T04:40:08.617Z,4.80
2022-08-23T04:42:36.569Z,4.65
2022-08-23T04:45:06.601Z,5.22
2022-08-23T04:47:34.798Z,4.65
2022-08-23T04:50:02.923Z,5.18
2022-08-23T04:52:30.785Z,4.80
2022-08-23T04:54:58.641Z,5.18
2022-08-23T04:57:26.723Z,5.03
2022-08-23T04:59:54.743Z,5.40
2022-08-23T05:02:23.963Z,4.95
2022-08-23T05:04:51.873Z,5.38
2022-08-23T05:07:19.785Z,4.80
2022-08-23T05:10:09.809Z,5.80
2022-08-23T05:12:37.720Z,5.93
2022-08-23T05:15:06.435Z,6.18
2022-08-23T05:17:35.849Z,5.80
2022-08-23T05:20:05.125Z,6.00
2022-08-23T05:22:34.759Z,6.07
2022-08-23T05:25:02.692Z,5.38
2022-08-23T05:27:31.226Z,6.50
2022-08-23T05:29:59.110Z,6.28
2022-08-23T05:32:33.669Z,6.22
2022-08-23T05:35:03.088Z,6.43
2022-08-23T05:37:33.630Z,6.47
2022-08-23T05:40:01.630Z,6.35
2022-08-23T05:42:29.628Z,6.03
2022-08-23T05:44:57.513Z,6.10
2022-08-23T05:47:27.089Z,6.00
2022-08-23T05:49:55.633Z,6.47
2022-08-23T05:52:24.860Z,6.15
2022-08-23T05:54:52.770Z,6.32
2022-08-23T05:57:20.701Z,6.25
2022-08-23T05:59:48.898Z,7.07
2022-08-23T06:02:16.865Z,7.15
2022-08-23T06:04:44.737Z,7.55
2022-08-23T06:07:13.371Z,7.20
2022-08-23T06:09:42.745Z,8.07
2022-08-23T06:12:10.655Z,8.93
2022-08-23T06:14:39.107Z,8.18
2022-08-23T06:17:07.472Z,9.77
2022-08-23T06:19:35.544Z,8.85
2022-08-23T06:22:03.428Z,9.02
2022-08-23T06:24:31.338Z,8.98
2022-08-23T06:27:00.564Z,8.25
2022-08-23T06:29:28.833Z,7.93
2022-08-23T06:31:56.791Z,7.53
2022-08-23T06:34:29.239Z,7.57
2022-08-23T06:37:00.090Z,4.80
2022-08-23T06:39:34.332Z,5.68
2022-08-23T06:42:34.404Z,5.80
2022-08-23T06:44:56.352Z,6.00
2022-08-23T06:47:24.328Z,5.00
2022-08-23T06:49:58.214Z,4.50
2022-08-23T06:52:28.417Z,5.43
2022-08-23T06:54:57.597Z,5.45
2022-08-23T06:57:27.415Z,5.63
2022-08-23T06:59:55.306Z,5.22
2022-08-23T07:02:23.327Z,5.80
2022-08-23T07:04:54.133Z,5.72
2022-08-23T07:07:22.405Z,5.57
2022-08-23T07:09:50.347Z,5.65
2022-08-23T07:12:19.824Z,5.97
2022-08-23T07:14:49.306Z,6.30
2022-08-23T07:17:17.326Z,5.65
2022-08-23T07:19:45.480Z,5.43
2022-08-23T07:22:15.550Z,5.32
2022-08-23T07:24:43.973Z,5.10
2022-08-23T07:27:12.337Z,5.72
2022-08-23T07:29:40.650Z,4.80
2022-08-23T07:32:10.314Z,6.40
2022-08-23T07:34:38.605Z,5.53
2022-08-23T07:37:15.153Z,6.78
2022-08-23T07:39:44.042Z,5.30
2022-08-23T07:42:23.710Z,5.63
2022-08-23T07:44:53.988Z,5.38
2022-08-23T07:47:23.421Z,5.60
2022-08-23T07:49:51.420Z,4.93
2022-08-23T07:52:19.311Z,4.70
2022-08-23T07:54:48.680Z,3.63
2022-08-23T07:57:17.855Z,2.97
2022-08-23T07:59:45.994Z,3.17
2022-08-23T08:02:14.033Z,3.10
2022-08-23T08:04:43.968Z,2.70
2022-08-23T08:07:19.157Z,2.88
2022-08-23T08:09:48.472Z,2.50
2022-08-23T08:12:16.394Z,2.35
2022-08-23T08:14:44.337Z,2.78
2022-08-23T08:17:12.406Z,2.63
2022-08-23T08:19:41.549Z,2.45
2022-08-23T08:22:13.089Z,2.20
2022-08-23T08:24:41.128Z,2.20
2022-08-23T08:27:09.286Z,1.88
2022-08-23T08:29:37.164Z,1.60
2022-08-23T08:32:05.343Z,2.08
2022-08-23T08:34:33.220Z,1.63
2022-08-23T08:37:01.225Z,1.40
2022-08-23T08:39:33.710Z,1.80
2022-08-23T08:42:20.501Z,1.52
2022-08-23T08:44:53.915Z,1.40
2022-08-23T08:47:27.740Z,1.63
2022-08-23T08:50:02.898Z,1.60
2022-08-23T08:52:33.912Z,1.50
2022-08-23T08:55:07.835Z,1.50
2022-08-23T08:57:40.963Z,1.77
2022-08-23T09:00:13.435Z,1.48
2022-08-23T09:02:42.833Z,1.40
2022-08-23T09:05:14.546Z,1.40
2022-08-23T09:07:52.130Z,1.48
2022-08-23T09:10:40.024Z,1.23
2022-08-23T09:13:26.566Z,1.40
2022-08-23T09:16:02.403Z,1.60
2022-08-23T09:18:35.281Z,1.40
2022-08-23T09:21:06.737Z,1.20
2022-08-23T09:23:39.417Z,1.48
2022-08-23T09:26:20.486Z,1.55
2022-08-23T09:28:50.368Z,1.90
2022-08-23T09:31:41.328Z,1.70
2022-08-23T09:34:09.893Z,1.50
2022-08-23T09:36:39.634Z,1.27
2022-08-23T09:39:23.877Z,1.70
2022-08-23T09:42:00.755Z,1.75
2022-08-23T09:44:35.660Z,1.70
2022-08-23T09:47:08.348Z,2.28
2022-08-23T09:49:37.731Z,1.70
2022-08-23T09:52:16.030Z,1.30
2022-08-23T09:54:58.468Z,1.48
2022-08-23T09:57:29.835Z,1.40
2022-08-23T10:00:03.377Z,1.40
2022-08-23T10:02:34.513Z,1.70
2022-08-23T10:05:05.611Z,1.40
2022-08-23T10:07:40.399Z,1.50
2022-08-23T10:10:16.892Z,1.60
2022-08-23T10:12:46.506Z,1.52
2022-08-23T10:15:15.642Z,1.30
2022-08-23T10:17:52.985Z,1.35
2022-08-23T10:20:32.551Z,1.40
2022-08-23T10:23:10.381Z,1.42
2022-08-23T10:25:42.842Z,1.60
2022-08-23T10:28:40.589Z,1.63
2022-08-23T10:31:16.936Z,1.50
2022-08-23T10:33:50.976Z,1.67
2022-08-23T10:36:24.319Z,1.80
2022-08-23T10:38:57.544Z,1.50
2022-08-23T10:41:41.191Z,1.63
2022-08-23T10:44:25.508Z,1.70
2022-08-23T10:47:03.432Z,1.70
2022-08-23T10:49:33.253Z,2.03
2022-08-23T10:52:06.119Z,1.60
2022-08-23T10:54:46.571Z,1.65
2022-08-23T10:57:17.676Z,1.60
2022-08-23T10:59:48.246Z,1.60
2022-08-23T11:02:28.437Z,1.67
2022-08-23T11:05:02.626Z,1.50
2022-08-23T11:07:32.317Z,1.98
2022-08-23T11:10:17.281Z,2.20
2022-08-23T11:12:55.511Z,1.85
2022-08-23T11:15:33.460Z,2.70
2022-08-23T11:18:04.695Z,2.50
2022-08-23T11:21:02.433Z,2.20
2022-08-23T11:23:54.338Z,3.10
2022-08-23T11:26:55.820Z,2.42
2022-08-23T11:29:44.028Z,2.65
2022-08-23T11:32:47.233Z,2.65
2022-08-23T11:35:42.993Z,2.58
2022-08-23T11:38:12.112Z,2.45
2022-08-23T11:40:59.782Z,3.17
2022-08-23T11:43:32.833Z,2.72
2022-08-23T11:46:26.578Z,3.30
2022-08-23T11:49:05.528Z,2.55
2022-08-23T11:51:41.713Z,2.67
2022-08-23T11:54:24.617Z,2.45
2022-08-23T11:57:15.060Z,3.38
2022-08-23T12:00:02.610Z,2.58
2022-08-23T12:02:35.524Z,2.83
2022-08-23T12:05:20.260Z,3.55
2022-08-23T12:07:54.827Z,3.13
2022-08-23T12:11:00.558Z,3.63
2022-08-23T12:13:48.360Z,2.88
2022-08-23T12:16:34.032Z,2.40
2022-08-23T12:19:25.870Z,2.40
2022-08-23T12:21:57.431Z,2.40
2022-08-23T12:24:32.501Z,2.50
2022-08-23T12:27:08.891Z,3.30
2022-08-23T12:29:48.916Z,2.78
2022-08-23T12:32:22.256Z,3.25
2022-08-23T12:35:06.687Z,3.55
2022-08-23T12:37:45.909Z,3.50
2022-08-23T12:40:18.003Z,2.58
2022-08-23T12:42:46.916Z,2.92
2022-08-23T12:45:17.678Z,2.80
2022-08-23T12:47:57.337Z,2.63
2022-08-23T12:50:33.059Z,4.28
2022-08-23T12:53:07.018Z,4.20
2022-08-23T12:55:39.046Z,3.33
2022-08-23T12:58:08.011Z,3.92
2022-08-23T13:00:39.490Z,3.67
2022-08-23T13:03:15.089Z,4.05
2022-08-23T13:05:46.828Z,3.88
2022-08-23T13:08:34.118Z,4.25
2022-08-23T13:11:07.661Z,4.25
2022-08-23T13:13:38.183Z,5.15
2022-08-23T13:16:27.365Z,5.63
2022-08-23T13:18:56.272Z,6.35
2022-08-23T13:21:34.104Z,4.82
2022-08-23T13:24:38.432Z,4.93
2022-08-23T13:27:16.237Z,4.07
2022-08-23T13:29:56.034Z,4.85
2022-08-23T13:32:33.548Z,4.78
2022-08-23T13:35:32.270Z,4.43
2022-08-23T13:38:13.901Z,4.72
2022-08-23T13:40:55.231Z,4.30
2022-08-23T13:43:27.669Z,5.10
2022-08-23T13:45:58.086Z,4.53
2022-08-23T13:48:30.805Z,3.53
2022-08-23T13:51:21.541Z,4.97
2022-08-23T13:53:49.645Z,4.00
2022-08-23T13:56:18.952Z,3.95
2022-08-23T13:58:56.379Z,4.30
2022-08-23T14:01:24.787Z,4.38
2022-08-23T14:03:52.778Z,3.47
2022-08-23T14:06:20.898Z,4.07
2022-08-23T14:08:49.280Z,4.05
2022-08-23T14:11:19.952Z,3.25
2022-08-23T14:13:49.822Z,5.13
2022-08-23T14:16:39.956Z,4.93
2022-08-23T14:19:19.141Z,3.33
2022-08-23T14:21:58.032Z,2.85
2022-08-23T14:24:26.949Z,2.97
2022-08-23T14:26:57.072Z,3.10
2022-08-23T14:29:27.928Z,2.70
2022-08-23T14:31:56.663Z,2.88
2022-08-23T14:34:24.546Z,2.90
2022-08-23T14:39:41.619Z,3.03
2022-08-23T14:42:13.108Z,3.30
2022-08-23T14:44:42.664Z,3.42
2022-08-23T14:47:10.628Z,3.67
2022-08-23T14:49:38.667Z,3.47
2022-08-23T14:52:06.932Z,3.53
2022-08-23T14:54:35.103Z,3.53
2022-08-23T14:57:03.017Z,3.50
2022-08-23T14:59:32.293Z,3.63
2022-08-23T15:02:00.837Z,3.72
2022-08-23T15:04:34.169Z,4.53
2022-08-23T15:07:19.326Z,5.85
2022-08-23T15:09:48.104Z,4.95
2022-08-23T15:15:06.772Z,4.82
2022-08-23T15:17:37.988Z,4.60
2022-08-23T15:20:07.214Z,4.60
2022-08-23T15:22:44.491Z,4.00
2022-08-23T15:25:13.923Z,3.72
2022-08-23T15:27:42.257Z,3.53
2022-08-23T15:30:13.476Z,3.60
2022-08-23T15:32:52.073Z,3.17
2022-08-23T15:35:21.257Z,3.60
2022-08-23T15:37:50.041Z,2.58
2022-08-23T15:40:18.089Z,4.40
2022-08-23T15:42:46.004Z,3.38
2022-08-23T15:45:15.404Z,2.83
2022-08-23T15:47:49.026Z,3.15
2022-08-23T15:50:19.291Z,3.50
2022-08-23T15:52:47.174Z,3.00
2022-08-23T15:55:15.923Z,2.97
2022-08-23T15:57:47.122Z,2.95
2022-08-23T16:00:18.817Z,2.97
2022-08-23T16:03:18.476Z,2.65
2022-08-23T16:05:34.948Z,2.90
2022-08-23T16:08:02.910Z,2.85
2022-08-23T16:10:30.880Z,2.95
2022-08-23T16:12:58.908Z,2.90
2022-08-23T16:15:28.206Z,3.58
2022-08-23T16:17:56.136Z,3.42
2022-08-23T16:20:24.087Z,3.25
2022-08-23T16:22:52.007Z,3.33
2022-08-23T16:25:21.056Z,3.28
2022-08-23T16:27:49.760Z,2.88
2022-08-23T16:30:17.958Z,2.80
2022-08-23T16:32:47.343Z,2.78
2022-08-23T16:35:15.723Z,3.03
2022-08-23T16:37:43.640Z,2.85
2022-08-23T16:40:13.404Z,2.50
2022-08-23T16:42:41.420Z,2.65
2022-08-23T16:45:11.127Z,2.50
2022-08-23T16:47:43.380Z,2.80
2022-08-23T16:50:15.108Z,2.25
2022-08-23T16:52:43.368Z,2.30
2022-08-23T16:55:13.044Z,2.90
2022-08-23T16:57:41.799Z,3.10
2022-08-23T17:00:12.864Z,2.58
2022-08-23T17:02:41.845Z,2.40
2022-08-23T17:05:12.036Z,2.60
2022-08-23T17:07:47.577Z,2.58
2022-08-23T17:10:19.352Z,2.50
2022-08-23T17:12:50.063Z,2.33
2022-08-23T17:15:22.017Z,3.00
2022-08-23T17:17:51.442Z,2.47
2022-08-23T17:20:20.923Z,2.20
2022-08-23T17:22:50.329Z,2.40
2022-08-23T17:25:20.070Z,3.03
2022-08-23T17:27:50.417Z,2.95
2022-08-23T17:30:20.934Z,3.30
2022-08-23T17:32:49.748Z,3.22
2022-08-23T17:35:21.503Z,3.17
2022-08-23T17:37:50.740Z,2.83
2022-08-23T17:40:23.657Z,2.85
2022-08-23T17:42:52.907Z,2.63
2022-08-23T17:45:24.469Z,2.50
2022-08-23T17:47:53.057Z,2.38
2022-08-23T17:50:22.056Z,2.45
2022-08-23T17:53:00.224Z,2.30
2022-08-23T17:55:28.931Z,2.10
2022-08-23T17:57:58.165Z,2.50
2022-08-23T18:00:45.631Z,2.10
2022-08-23T18:03:19.531Z,2.00
2022-08-23T18:05:48.428Z,2.13
2022-08-23T18:08:18.726Z,2.00
2022-08-23T18:10:46.990Z,1.90
2022-08-23T18:13:15.359Z,1.92
2022-08-23T18:15:43.976Z,1.50
2022-08-23T18:18:15.180Z,1.40
2022-08-23T18:20:44.011Z,1.40
2022-08-23T18:23:13.099Z,1.30
2022-08-23T18:25:42.572Z,1.70
2022-08-23T18:28:13.208Z,1.05
2022-08-23T18:30:51.149Z,1.50
2022-08-23T18:33:20.937Z,1.20
2022-08-23T18:35:54.294Z,1.08
2022-08-23T18:38:29.377Z,1.13
2022-08-23T18:40:58.986Z,1.02
2022-08-23T18:43:30.762Z,1.00
2022-08-23T18:46:11.024Z,1.08
2022-08-23T18:48:39.683Z,1.05
2022-08-23T18:51:10.830Z,1.00
2022-08-23T18:53:46.340Z,0.93
2022-08-23T18:56:16.204Z,1.00
2022-08-23T18:58:44.570Z,1.30
2022-08-23T19:01:24.265Z,1.00
2022-08-23T19:03:53.155Z,1.10
2022-08-23T19:06:21.308Z,1.20
2022-08-23T19:08:49.548Z,0.90
2022-08-23T19:11:20.000Z,1.05
2022-08-23T19:13:50.836Z,1.00
2022-08-23T19:16:23.829Z,1.02
2022-08-23T19:18:57.619Z,1.10
2022-08-23T19:21:26.662Z,1.13
2022-08-23T19:23:56.492Z,0.95
2022-08-23T19:26:31.505Z,1.05
2022-08-23T19:29:00.353Z,1.30
2022-08-23T19:31:33.513Z,1.10
2022-08-23T19:34:04.189Z,2.33
2022-08-23T19:36:45.706Z,1.30
2022-08-23T19:39:16.370Z,1.20
2022-08-23T19:41:46.969Z,1.20
2022-08-23T19:44:15.531Z,1.00
2022-08-23T19:46:45.998Z,1.17
2022-08-23T19:49:14.525Z,1.38
2022-08-23T19:51:43.289Z,1.50
2022-08-23T19:54:12.872Z,1.52
2022-08-23T19:56:45.898Z,1.30
2022-08-23T19:59:17.871Z,1.40
2022-08-23T20:01:45.882Z,1.20
2022-08-23T20:04:14.592Z,1.00
2022-08-23T20:06:42.904Z,1.20
2022-08-23T20:09:12.446Z,1.48
2022-08-23T20:11:40.545Z,1.30
2022-08-23T20:14:10.002Z,1.50
2022-08-23T20:16:46.268Z,1.70
2022-08-23T20:19:19.325Z,1.20
2022-08-23T20:21:50.552Z,1.27
2022-08-23T20:24:22.821Z,1.30
2022-08-23T20:27:00.677Z,1.25
2022-08-23T20:29:28.652Z,1.30
2022-08-23T20:32:00.417Z,1.00
2022-08-23T20:34:29.063Z,1.20
2022-08-23T20:36:58.381Z,1.23
2022-08-23T20:39:27.303Z,1.40
2022-08-23T20:41:56.247Z,1.30
2022-08-23T20:44:25.922Z,1.48
2022-08-23T20:46:56.784Z,1.55
2022-08-23T20:49:29.350Z,2.33
2022-08-23T20:51:57.254Z,1.00
2022-08-23T20:54:25.166Z,1.27
2022-08-23T20:56:53.470Z,1.50
2022-08-23T20:59:22.042Z,1.33
2022-08-23T21:01:50.239Z,1.30
2022-08-23T21:04:18.436Z,1.15
2022-08-23T21:06:49.885Z,1.00
2022-08-23T21:09:20.712Z,1.13
2022-08-23T21:11:52.122Z,1.20
2022-08-23T21:14:21.424Z,1.25
2022-08-23T21:16:49.815Z,1.50
2022-08-23T21:19:18.886Z,1.77
2022-08-23T21:21:48.793Z,1.20
2022-08-23T21:24:17.168Z,1.40
2022-08-23T21:26:45.084Z,1.52
2022-08-23T21:29:12.961Z,2.42
2022-08-23T21:31:40.978Z,1.50
2022-08-23T21:34:09.684Z,1.40
2022-08-23T21:36:38.007Z,1.42
2022-08-23T21:39:07.352Z,1.30
2022-08-23T21:41:38.812Z,1.45
2022-08-23T21:44:09.064Z,1.60
2022-08-23T21:46:37.260Z,1.52
2022-08-23T21:49:05.590Z,1.60
2022-08-23T21:51:35.026Z,1.65
2022-08-23T21:54:03.703Z,1.60
2022-08-23T21:56:33.170Z,1.30
2022-08-23T21:59:01.964Z,1.30
2022-08-23T22:01:35.537Z,1.30
2022-08-23T22:04:03.737Z,1.42
2022-08-23T22:06:32.092Z,1.45
2022-08-23T22:09:00.879Z,1.40
2022-08-23T22:11:29.051Z,1.23
2022-08-23T22:13:58.708Z,1.08
2022-08-23T22:16:26.748Z,1.23
2022-08-23T22:18:54.704Z,1.27
2022-08-23T22:21:23.027Z,1.20
2022-08-23T22:23:52.424Z,1.65
2022-08-23T22:26:20.526Z,1.20
2022-08-23T22:28:48.402Z,1.20
2022-08-23T22:31:17.723Z,1.33
2022-08-23T22:33:46.237Z,1.20
2022-08-23T22:36:16.935Z,1.13
2022-08-23T22:38:45.403Z,1.10
2022-08-23T22:41:16.711Z,1.23
2022-08-23T22:43:44.633Z,1.27
2022-08-23T22:46:12.906Z,1.10
2022-08-23T22:48:42.604Z,1.10
2022-08-23T22:51:13.364Z,1.20
2022-08-23T22:53:44.348Z,1.00
2022-08-23T22:56:13.830Z,1.20
2022-08-23T22:58:41.868Z,1.27
2022-08-23T23:01:12.891Z,1.20
2022-08-23T23:03:42.811Z,1.35
2022-08-23T23:06:11.107Z,1.00
2022-08-23T23:08:38.072Z,1.33
2022-08-23T23:11:09.992Z,1.50
2022-08-23T23:13:38.804Z,1.33
2022-08-23T23:16:09.120Z,1.25
2022-08-23T23:18:37.516Z,1.35
2022-08-23T23:21:06.070Z,1.33
2022-08-23T23:23:35.883Z,1.10
2022-08-23T23:26:08.011Z,1.38
2022-08-23T23:28:35.931Z,1.45
2022-08-23T23:31:04.467Z,1.40
2022-08-23T23:33:32.396Z,1.25
2022-08-23T23:36:00.256Z,1.52
2022-08-23T23:38:29.529Z,1.15
2022-08-23T23:40:57.433Z,1.50
2022-08-23T23:43:25.424Z,1.50
2022-08-23T23:45:53.322Z,1.65
2022-08-23T23:48:21.226Z,1.40
2022-08-23T23:50:49.221Z,1.60
2022-08-23T23:53:17.304Z,1.50
2022-08-23T23:55:47.728Z,1.67
2022-08-23T23:58:15.636Z,1.58
